createdAt,value
2022-12-04T05:30:35.470Z,87.45
2022-12-04T05:31:35.492Z,87.35
2022-12-04T05:32:35.426Z,87.24
2022-12-04T05:33:35.397Z,87.10
2022-12-04T05:34:35.414Z,86.61
2022-12-04T05:35:35.405Z,86.41
2022-12-04T05:36:35.361Z,86.68
2022-12-04T05:37:35.357Z,87.20
2022-12-04T05:38:35.347Z,86.27
2022-12-04T05:39:35.346Z,86.41
2022-12-04T05:40:35.347Z,86.61
2022-12-04T05:41:35.312Z,86.68
2022-12-04T05:42:35.297Z,86.89
2022-12-04T05:43:35.299Z,87.30
2022-12-04T05:44:35.281Z,87.10
2022-12-04T05:45:35.306Z,87.35
2022-12-04T05:46:35.378Z,87.41
2022-12-04T05:47:35.380Z,87.20
2022-12-04T05:48:35.244Z,86.58
2022-12-04T05:49:35.280Z,87.20
2022-12-04T05:50:35.238Z,87.30
2022-12-04T05:51:35.322Z,86.72
2022-12-04T05:52:35.196Z,86.61
2022-12-04T05:53:35.191Z,87.14
2022-12-04T05:54:35.174Z,87.35
2022-12-04T05:55:35.204Z,86.51
2022-12-04T05:56:35.205Z,87.24
2022-12-04T05:57:35.154Z,87.24
2022-12-04T05:58:35.149Z,87.66
2022-12-04T05:59:35.147Z,86.93
2022-12-04T06:00:35.116Z,87.24
2022-12-04T06:01:36.052Z,87.35
2022-12-04T06:02:35.285Z,86.93
2022-12-04T06:03:35.192Z,87.55
2022-12-04T06:04:35.085Z,87.14
2022-12-04T06:05:35.063Z,87.87
2022-12-04T06:06:35.065Z,87.04
2022-12-04T06:07:35.109Z,87.24
2022-12-04T06:08:35.047Z,86.93
2022-12-04T06:09:35.022Z,87.10
2022-12-04T06:10:35.020Z,87.45
2022-12-04T06:11:34.999Z,87.14
2022-12-04T06:12:35.011Z,87.55
2022-12-04T06:13:34.979Z,87.45
2022-12-04T06:14:39.524Z,87.45
2022-12-04T06:15:35.958Z,87.55
2022-12-04T06:16:35.020Z,87.66
2022-12-04T06:17:34.938Z,87.66
2022-12-04T06:18:34.962Z,87.97
2022-12-04T06:19:34.973Z,87.66
2022-12-04T06:20:34.976Z,87.55
2022-12-04T06:21:34.912Z,87.35
2022-12-04T06:22:34.875Z,87.55
2022-12-04T06:23:34.889Z,87.04
2022-12-04T06:24:34.856Z,87.04
2022-12-04T06:25:34.860Z,87.55
2022-12-04T06:26:34.841Z,87.45
2022-12-04T06:27:34.841Z,87.45
2022-12-04T06:28:34.838Z,87.76
2022-12-04T06:29:34.806Z,87.66
2022-12-04T06:30:34.804Z,87.55
2022-12-04T06:31:34.805Z,87.76
2022-12-04T06:32:34.782Z,87.66
2022-12-04T06:33:34.786Z,87.97
2022-12-04T06:34:34.776Z,87.66
2022-12-04T06:35:34.825Z,87.76
2022-12-04T06:36:34.730Z,87.97
2022-12-04T06:37:34.737Z,87.97
2022-12-04T06:38:34.724Z,87.81
2022-12-04T06:39:34.706Z,87.91
2022-12-04T06:40:34.696Z,88.01
2022-12-04T06:41:34.693Z,88.64
2022-12-04T06:42:34.679Z,88.08
2022-12-04T06:43:34.684Z,87.97
2022-12-04T06:44:34.653Z,87.66
2022-12-04T06:45:34.669Z,87.45
2022-12-04T06:46:34.630Z,87.87
2022-12-04T06:47:34.667Z,88.08
2022-12-04T06:48:34.607Z,87.97
2022-12-04T06:49:34.629Z,88.08
2022-12-04T06:50:34.608Z,87.97
2022-12-04T06:51:34.576Z,87.97
2022-12-04T06:52:34.562Z,88.08
2022-12-04T06:53:34.570Z,88.18
2022-12-04T06:54:34.561Z,87.35
2022-12-04T06:55:34.559Z,87.45
2022-12-04T06:56:34.532Z,87.97
2022-12-04T06:57:34.529Z,88.08
2022-12-04T06:58:34.512Z,88.08
2022-12-04T06:59:34.510Z,88.18
2022-12-04T07:00:34.525Z,88.12
2022-12-04T07:01:34.705Z,87.97
2022-12-04T07:02:34.522Z,87.97
2022-12-04T07:03:34.448Z,88.08
2022-12-04T07:04:34.443Z,88.08
2022-12-04T07:05:34.433Z,87.81
2022-12-04T07:06:34.454Z,87.35
2022-12-04T07:07:34.469Z,87.87
2022-12-04T07:08:34.455Z,87.97
2022-12-04T07:09:34.414Z,87.87
2022-12-04T07:10:34.383Z,88.08
2022-12-04T07:11:34.374Z,87.87
2022-12-04T07:12:34.355Z,87.87
2022-12-04T07:13:34.348Z,88.08
2022-12-04T07:14:34.335Z,87.97
2022-12-04T07:15:34.400Z,88.08
2022-12-04T07:16:40.257Z,88.18
2022-12-04T07:17:35.320Z,87.55
2022-12-04T07:18:34.297Z,87.97
2022-12-04T07:19:34.321Z,87.87
2022-12-04T07:20:34.274Z,88.08
2022-12-04T07:21:34.289Z,87.66
2022-12-04T07:22:34.271Z,88.70
2022-12-04T07:23:34.261Z,88.60
2022-12-04T07:24:34.250Z,87.87
2022-12-04T07:25:34.235Z,88.08
2022-12-04T07:26:34.225Z,87.97
2022-12-04T07:27:34.207Z,87.97
2022-12-04T07:28:34.204Z,87.97
2022-12-04T07:29:34.182Z,87.76
2022-12-04T07:30:34.173Z,88.18
2022-12-04T07:31:34.234Z,87.87
2022-12-04T07:32:34.188Z,87.66
2022-12-04T07:33:34.142Z,88.81
2022-12-04T07:34:34.126Z,88.53
2022-12-04T07:35:34.124Z,88.81
2022-12-04T07:36:34.114Z,88.64
2022-12-04T07:37:34.100Z,89.16
2022-12-04T07:38:34.129Z,89.06
2022-12-04T07:39:34.070Z,89.12
2022-12-04T07:40:34.061Z,88.95
2022-12-04T07:41:34.051Z,88.95
2022-12-04T07:42:34.045Z,88.64
2022-12-04T07:43:34.042Z,89.43
2022-12-04T07:44:34.053Z,88.81
2022-12-04T07:45:34.047Z,88.18
2022-12-04T07:46:34.091Z,88.70
2022-12-04T07:47:34.002Z,88.75
2022-12-04T07:48:33.989Z,88.75
2022-12-04T07:49:33.989Z,88.64
2022-12-04T07:50:34.019Z,88.75
2022-12-04T07:51:33.942Z,89.37
2022-12-04T07:52:33.929Z,88.75
2022-12-04T07:53:33.928Z,89.26
2022-12-04T07:54:33.934Z,89.37
2022-12-04T07:55:33.907Z,88.81
2022-12-04T07:56:33.912Z,88.95
2022-12-04T07:57:33.909Z,88.95
2022-12-04T07:58:33.871Z,88.85
2022-12-04T07:59:33.897Z,88.70
2022-12-04T08:00:33.846Z,88.81
2022-12-04T08:01:33.940Z,88.81
2022-12-04T08:02:33.844Z,88.53
2022-12-04T08:03:33.830Z,88.70
2022-12-04T08:04:33.929Z,88.22
2022-12-04T08:05:33.838Z,88.01
2022-12-04T08:06:33.809Z,88.43
2022-12-04T08:07:33.848Z,88.53
2022-12-04T08:08:33.827Z,89.16
2022-12-04T08:09:33.765Z,88.95
2022-12-04T08:10:33.800Z,88.64
2022-12-04T08:11:33.741Z,89.06
2022-12-04T08:12:33.737Z,89.47
2022-12-04T08:13:33.765Z,89.01
2022-12-04T08:14:33.730Z,88.70
2022-12-04T08:15:33.705Z,88.60
2022-12-04T08:16:33.911Z,89.12
2022-12-04T08:17:33.699Z,88.64
2022-12-04T08:18:33.660Z,88.91
2022-12-04T08:19:33.655Z,89.32
2022-12-04T08:20:33.661Z,88.49
2022-12-04T08:21:33.645Z,89.06
2022-12-04T08:22:33.624Z,88.85
2022-12-04T08:23:33.624Z,88.85
2022-12-04T08:24:33.598Z,88.64
2022-12-04T08:25:33.598Z,88.53
2022-12-04T08:26:33.994Z,89.06
2022-12-04T08:27:33.572Z,88.70
2022-12-04T08:28:33.565Z,89.01
2022-12-04T08:29:33.557Z,88.70
2022-12-04T08:30:33.572Z,88.60
2022-12-04T08:31:33.583Z,88.60
2022-12-04T08:32:33.536Z,88.29
2022-12-04T08:33:33.505Z,88.91
2022-12-04T08:34:33.514Z,88.91
2022-12-04T08:35:33.495Z,88.49
2022-12-04T08:36:33.490Z,89.01
2022-12-04T08:37:33.492Z,89.22
2022-12-04T08:38:33.472Z,88.49
2022-12-04T08:39:33.441Z,88.49
2022-12-04T08:40:33.465Z,88.81
2022-12-04T08:41:33.436Z,88.91
2022-12-04T08:42:33.461Z,89.01
2022-12-04T08:43:33.420Z,88.60
2022-12-04T08:44:33.402Z,88.70
2022-12-04T08:45:33.399Z,88.39
2022-12-04T08:46:33.485Z,89.01
2022-12-04T08:47:33.363Z,88.49
2022-12-04T08:48:33.367Z,88.81
2022-12-04T08:49:33.337Z,88.60
2022-12-04T08:50:33.328Z,89.12
2022-12-04T08:51:33.329Z,88.53
2022-12-04T08:52:33.306Z,88.91
2022-12-04T08:53:33.312Z,88.91
2022-12-04T08:54:36.268Z,89.22
2022-12-04T08:55:33.277Z,88.75
2022-12-04T08:56:33.266Z,89.26
2022-12-04T08:57:33.272Z,89.47
2022-12-04T08:58:33.264Z,89.26
2022-12-04T08:59:33.236Z,89.78
2022-12-04T09:00:33.245Z,89.68
2022-12-04T09:01:33.289Z,90.10
2022-12-04T09:02:33.226Z,90.00
2022-12-04T09:03:33.183Z,89.78
2022-12-04T09:04:33.232Z,89.89
2022-12-04T09:05:33.197Z,90.10
2022-12-04T09:06:33.166Z,89.47
2022-12-04T09:07:33.206Z,89.58
2022-12-04T09:08:33.144Z,89.54
2022-12-04T09:09:33.128Z,89.54
2022-12-04T09:10:33.178Z,89.43
2022-12-04T09:11:33.137Z,89.22
2022-12-04T09:12:33.165Z,89.12
2022-12-04T09:13:33.088Z,89.01
2022-12-04T09:14:33.093Z,88.81
2022-12-04T09:15:33.112Z,88.60
2022-12-04T09:16:33.132Z,88.70
2022-12-04T09:17:33.052Z,89.01
2022-12-04T09:18:33.065Z,88.81
2022-12-04T09:19:33.024Z,89.29
2022-12-04T09:20:33.022Z,89.43
2022-12-04T09:21:33.008Z,89.01
2022-12-04T09:22:57.824Z,88.91
2022-12-04T09:23:33.983Z,89.01
2022-12-04T09:24:32.975Z,89.22
2022-12-04T09:25:33.021Z,89.01
2022-12-04T09:26:32.962Z,88.91
2022-12-04T09:27:32.949Z,88.91
2022-12-04T09:28:32.937Z,89.26
2022-12-04T09:29:32.925Z,89.26
2022-12-04T09:30:32.936Z,89.78
2022-12-04T09:31:33.018Z,90.00
2022-12-04T09:32:32.892Z,89.85
2022-12-04T09:33:32.890Z,89.47
2022-12-04T09:34:32.870Z,89.89
2022-12-04T09:35:32.867Z,89.89
2022-12-04T09:36:32.851Z,89.43
2022-12-04T09:37:32.851Z,90.16
2022-12-04T09:38:32.842Z,90.16
2022-12-04T09:39:32.829Z,89.64
2022-12-04T09:40:37.598Z,89.75
2022-12-04T09:41:33.789Z,89.75
2022-12-04T09:42:32.792Z,89.32
2022-12-04T09:43:32.788Z,89.32
2022-12-04T09:44:32.800Z,89.39
2022-12-04T09:45:32.759Z,90.06
2022-12-04T09:46:32.896Z,89.64
2022-12-04T09:47:32.740Z,89.95
2022-12-04T09:48:32.724Z,89.75
2022-12-04T09:49:32.734Z,89.81
2022-12-04T09:50:32.713Z,89.12
2022-12-04T09:51:32.687Z,88.87
2022-12-04T09:52:32.710Z,89.39
2022-12-04T09:53:32.670Z,89.39
2022-12-04T09:54:32.658Z,89.39
2022-12-04T09:55:32.647Z,89.43
2022-12-04T09:56:32.655Z,89.39
2022-12-04T09:57:32.638Z,89.70
2022-12-04T09:58:32.630Z,89.18
2022-12-04T09:59:32.601Z,89.29
2022-12-04T10:00:32.598Z,89.18
2022-12-04T10:01:32.599Z,88.66
2022-12-04T10:02:32.744Z,89.70
2022-12-04T10:03:32.713Z,89.29
2022-12-04T10:04:32.562Z,89.81
2022-12-04T10:05:32.571Z,89.50
2022-12-04T10:06:32.532Z,89.56
2022-12-04T10:07:32.606Z,89.76
2022-12-04T10:08:32.529Z,89.81
2022-12-04T10:09:32.491Z,89.87
2022-12-04T10:10:32.526Z,89.76
2022-12-04T10:11:33.140Z,89.66
2022-12-04T10:12:32.466Z,90.08
2022-12-04T10:13:32.468Z,89.45
2022-12-04T10:14:32.447Z,88.83
2022-12-04T10:15:32.432Z,88.83
2022-12-04T10:16:32.571Z,88.62
2022-12-04T10:17:33.213Z,88.52
2022-12-04T10:18:32.449Z,88.52
2022-12-04T10:19:32.406Z,88.93
2022-12-04T10:20:32.390Z,89.04
2022-12-04T10:21:32.380Z,88.89
2022-12-04T10:22:32.365Z,89.20
2022-12-04T10:23:32.377Z,89.10
2022-12-04T10:24:32.346Z,88.48
2022-12-04T10:25:32.331Z,87.85
2022-12-04T10:26:32.361Z,87.75
2022-12-04T10:27:32.316Z,88.37
2022-12-04T10:28:32.301Z,88.27
2022-12-04T10:29:32.291Z,88.89
2022-12-04T10:30:32.552Z,87.85
2022-12-04T10:31:32.388Z,87.75
2022-12-04T10:32:32.264Z,87.75
2022-12-04T10:33:32.281Z,87.85
2022-12-04T10:34:32.260Z,87.65
2022-12-04T10:35:32.224Z,87.54
2022-12-04T10:36:32.232Z,87.81
2022-12-04T10:37:32.216Z,87.81
2022-12-04T10:38:32.231Z,87.81
2022-12-04T10:39:32.185Z,87.81
2022-12-04T10:40:32.203Z,87.40
2022-12-04T10:41:32.190Z,87.40
2022-12-04T10:42:32.183Z,87.29
2022-12-04T10:43:32.161Z,87.81
2022-12-04T10:44:32.140Z,87.92
2022-12-04T10:45:32.119Z,87.81
2022-12-04T10:46:32.189Z,87.60
2022-12-04T10:47:32.121Z,87.29
2022-12-04T10:48:32.097Z,87.40
2022-12-04T10:49:32.097Z,86.83
2022-12-04T10:50:32.108Z,87.29
2022-12-04T10:51:32.068Z,86.98
2022-12-04T10:52:32.081Z,87.50
2022-12-04T10:53:32.038Z,87.50
2022-12-04T10:54:32.026Z,87.60
2022-12-04T10:55:32.022Z,87.81
2022-12-04T10:56:32.016Z,87.92
2022-12-04T10:57:32.002Z,87.71
2022-12-04T10:58:32.009Z,87.35
2022-12-04T10:59:31.971Z,87.71
2022-12-04T11:00:32.005Z,87.15
2022-12-04T11:01:31.975Z,87.46
2022-12-04T11:02:32.088Z,87.35
2022-12-04T11:03:32.036Z,87.25
2022-12-04T11:04:31.917Z,86.83
2022-12-04T11:05:31.899Z,87.08
2022-12-04T11:06:31.948Z,87.81
2022-12-04T11:07:31.968Z,87.71
2022-12-04T11:08:31.953Z,87.81
2022-12-04T11:09:31.914Z,87.81
2022-12-04T11:10:31.846Z,88.43
2022-12-04T11:11:31.855Z,88.33
2022-12-04T11:12:31.860Z,88.96
2022-12-04T11:13:31.821Z,88.81
2022-12-04T11:14:31.816Z,88.09
2022-12-04T11:15:31.816Z,88.50
2022-12-04T11:16:31.825Z,88.19
2022-12-04T11:17:31.787Z,88.64
2022-12-04T11:18:31.789Z,88.64
2022-12-04T11:19:31.754Z,87.66
2022-12-04T11:20:31.754Z,87.88
2022-12-04T11:21:31.760Z,87.46
2022-12-04T11:22:31.757Z,87.35
2022-12-04T11:23:31.739Z,87.88
2022-12-04T11:24:31.730Z,87.88
2022-12-04T11:25:31.701Z,87.88
2022-12-04T11:26:31.682Z,87.88
2022-12-04T11:27:31.675Z,87.77
2022-12-04T11:28:46.370Z,87.81
2022-12-04T11:29:32.658Z,87.25
2022-12-04T11:30:31.637Z,87.77
2022-12-04T11:31:31.719Z,87.15
2022-12-04T11:32:31.617Z,87.56
2022-12-04T11:33:31.603Z,87.46
2022-12-04T11:34:31.626Z,87.66
2022-12-04T11:35:31.601Z,87.25
2022-12-04T11:36:31.590Z,87.56
2022-12-04T11:37:31.558Z,87.88
2022-12-04T11:38:31.597Z,87.88
2022-12-04T11:39:31.552Z,87.77
2022-12-04T11:40:31.551Z,87.46
2022-12-04T11:41:31.518Z,87.66
2022-12-04T11:42:31.522Z,87.77
2022-12-04T11:43:31.492Z,87.32
2022-12-04T11:44:31.521Z,90.02
2022-12-04T11:45:31.502Z,92.10
2022-12-04T11:46:31.666Z,91.37
2022-12-04T11:47:31.453Z,90.54
2022-12-04T11:48:31.472Z,88.56
2022-12-04T11:49:31.450Z,87.84
2022-12-04T11:50:31.454Z,87.01
2022-12-04T11:51:31.446Z,86.80
2022-12-04T11:52:31.401Z,87.32
2022-12-04T11:53:31.401Z,87.21
2022-12-04T11:54:31.401Z,87.32
2022-12-04T11:55:31.366Z,87.21
2022-12-04T11:56:31.366Z,87.32
2022-12-04T11:57:31.381Z,87.21
2022-12-04T11:58:31.355Z,87.21
2022-12-04T11:59:31.338Z,87.42
2022-12-04T12:00:31.320Z,87.32
2022-12-04T12:01:31.380Z,86.80
2022-12-04T12:02:31.448Z,87.42
2022-12-04T12:03:31.394Z,86.80
2022-12-04T12:04:31.304Z,87.11
2022-12-04T12:05:31.256Z,87.01
2022-12-04T12:06:31.266Z,87.21
2022-12-04T12:07:31.311Z,87.21
2022-12-04T12:08:31.233Z,87.11
2022-12-04T12:09:31.274Z,87.01
2022-12-04T12:10:31.246Z,87.11
2022-12-04T12:11:31.193Z,86.86
2022-12-04T12:12:31.190Z,86.96
2022-12-04T12:13:31.175Z,86.69
2022-12-04T12:14:31.169Z,87.01
2022-12-04T12:15:31.182Z,87.11
2022-12-04T12:16:31.254Z,87.11
2022-12-04T12:17:31.150Z,87.07
2022-12-04T12:18:31.157Z,86.59
2022-12-04T12:19:31.105Z,86.49
2022-12-04T12:20:31.121Z,86.27
2022-12-04T12:21:31.135Z,87.01
2022-12-04T12:22:31.080Z,86.24
2022-12-04T12:23:31.065Z,86.49
2022-12-04T12:24:31.054Z,86.90
2022-12-04T12:25:31.071Z,87.11
2022-12-04T12:26:31.095Z,87.27
2022-12-04T12:27:31.065Z,87.21
2022-12-04T12:28:31.018Z,86.90
2022-12-04T12:29:31.005Z,87.01
2022-12-04T12:30:31.000Z,86.96
2022-12-04T12:31:31.061Z,86.90
2022-12-04T12:32:30.970Z,87.32
2022-12-04T12:33:30.987Z,86.86
2022-12-04T12:34:30.958Z,86.86
2022-12-04T12:35:30.936Z,86.86
2022-12-04T12:36:30.952Z,86.59
2022-12-04T12:37:30.939Z,86.55
2022-12-04T12:38:30.913Z,86.17
2022-12-04T12:39:30.900Z,87.01
2022-12-04T12:40:30.900Z,86.86
2022-12-04T12:41:30.877Z,87.17
2022-12-04T12:42:30.885Z,87.21
2022-12-04T12:43:30.999Z,86.69
2022-12-04T12:44:30.847Z,87.21
2022-12-04T12:45:30.884Z,87.17
2022-12-04T12:46:30.988Z,87.11
2022-12-04T12:47:30.855Z,86.96
2022-12-04T12:48:30.834Z,86.24
2022-12-04T12:49:30.806Z,86.38
2022-12-04T12:50:30.792Z,86.13
2022-12-04T12:51:31.099Z,86.69
2022-12-04T12:52:30.756Z,87.17
2022-12-04T12:53:30.770Z,86.80
2022-12-04T12:54:30.754Z,87.32
2022-12-04T12:55:30.738Z,86.96
2022-12-04T12:56:30.715Z,86.76
2022-12-04T12:57:30.711Z,86.80
2022-12-04T12:58:30.719Z,87.01
2022-12-04T12:59:30.716Z,87.42
2022-12-04T13:00:30.671Z,87.21
2022-12-04T13:01:30.757Z,87.01
2022-12-04T13:02:30.732Z,87.11
2022-12-04T13:03:30.636Z,87.21
2022-12-04T13:04:30.624Z,87.21
2022-12-04T13:05:30.639Z,87.42
2022-12-04T13:06:30.618Z,87.21
2022-12-04T13:07:30.713Z,87.35
2022-12-04T13:08:30.582Z,87.32
2022-12-04T13:09:30.574Z,87.32
2022-12-04T13:10:30.564Z,87.11
2022-12-04T13:11:30.575Z,87.32
2022-12-04T13:12:30.548Z,87.21
2022-12-04T13:13:30.539Z,87.32
2022-12-04T13:14:30.540Z,87.52
2022-12-04T13:15:30.531Z,87.73
2022-12-04T13:16:30.545Z,87.63
2022-12-04T13:17:30.497Z,87.73
2022-12-04T13:18:30.476Z,87.73
2022-12-04T13:19:30.480Z,87.84
2022-12-04T13:20:30.456Z,87.79
2022-12-04T13:21:30.474Z,87.63
2022-12-04T13:22:30.450Z,87.42
2022-12-04T13:23:30.434Z,87.21
2022-12-04T13:24:30.425Z,87.63
2022-12-04T13:25:30.406Z,87.01
2022-12-04T13:26:30.401Z,87.01
2022-12-04T13:27:30.406Z,86.69
2022-12-04T13:28:30.964Z,86.59
2022-12-04T13:29:30.372Z,87.21
2022-12-04T13:30:30.381Z,87.11
2022-12-04T13:31:30.386Z,87.63
2022-12-04T13:32:30.322Z,87.01
2022-12-04T13:33:30.319Z,87.32
2022-12-04T13:34:30.312Z,89.60
2022-12-04T13:35:30.359Z,94.40
2022-12-04T13:36:30.308Z,92.11
2022-12-04T13:37:30.275Z,90.35
2022-12-04T13:38:30.289Z,88.73
2022-12-04T13:39:30.263Z,89.67
2022-12-04T13:40:30.261Z,88.69
2022-12-04T13:41:30.250Z,88.42
2022-12-04T13:42:30.221Z,87.69
2022-12-04T13:43:30.211Z,87.07
2022-12-04T13:44:30.216Z,87.07
2022-12-04T13:45:30.249Z,87.32
2022-12-04T13:46:30.348Z,86.86
2022-12-04T13:47:30.214Z,87.48
2022-12-04T13:48:30.153Z,87.27
2022-12-04T13:49:30.237Z,87.73
2022-12-04T13:50:30.126Z,87.69
2022-12-04T13:51:30.120Z,87.63
2022-12-04T13:52:30.106Z,87.73
2022-12-04T13:53:30.180Z,87.73
2022-12-04T13:54:30.118Z,87.69
2022-12-04T13:55:30.072Z,88.25
2022-12-04T13:56:30.059Z,88.56
2022-12-04T13:57:30.059Z,88.31
2022-12-04T13:58:30.042Z,87.79
2022-12-04T13:59:30.063Z,87.90
2022-12-04T14:00:30.024Z,88.31
2022-12-04T14:01:30.155Z,88.77
2022-12-04T14:02:30.059Z,88.77
2022-12-04T14:03:30.017Z,88.87
2022-12-04T14:04:29.982Z,88.87
2022-12-04T14:05:30.017Z,88.67
2022-12-04T14:06:29.961Z,88.77
2022-12-04T14:07:30.012Z,88.35
2022-12-04T14:08:29.999Z,88.46
2022-12-04T14:09:29.931Z,88.46
2022-12-04T14:10:29.913Z,89.08
2022-12-04T14:11:31.769Z,88.98
2022-12-04T14:12:30.004Z,88.87
2022-12-04T14:13:30.120Z,88.46
2022-12-04T14:14:30.397Z,88.67
2022-12-04T14:15:30.026Z,88.98
2022-12-04T14:16:29.906Z,88.62
2022-12-04T14:17:29.843Z,88.84
2022-12-04T14:18:30.004Z,88.87
2022-12-04T14:19:29.913Z,88.98
2022-12-04T14:20:29.909Z,88.31
2022-12-04T14:21:29.835Z,88.56
2022-12-04T14:22:29.807Z,88.67
2022-12-04T14:23:29.781Z,88.56
2022-12-04T14:24:29.760Z,88.46
2022-12-04T14:25:29.757Z,88.67
2022-12-04T14:27:30.774Z,88.98
2022-12-04T14:28:29.728Z,88.67
2022-12-04T14:29:29.716Z,88.87
2022-12-04T14:30:29.763Z,88.25
2022-12-04T14:31:29.771Z,88.35
2022-12-04T14:32:29.683Z,88.87
2022-12-04T14:33:29.685Z,88.98
2022-12-04T14:34:29.690Z,88.67
2022-12-04T14:35:29.657Z,88.98
2022-12-04T14:36:29.648Z,88.67
2022-12-04T14:37:29.658Z,89.08
2022-12-04T14:38:29.636Z,89.04
2022-12-04T14:39:29.610Z,89.08
2022-12-04T14:40:29.598Z,88.84
2022-12-04T14:41:29.586Z,89.04
2022-12-04T14:42:29.599Z,88.87
2022-12-04T14:43:29.559Z,88.31
2022-12-04T14:44:29.573Z,88.35
2022-12-04T14:45:29.561Z,88.31
2022-12-04T14:46:29.611Z,88.77
2022-12-04T14:47:29.723Z,88.62
2022-12-04T14:48:29.574Z,88.77
2022-12-04T14:49:29.498Z,88.35
2022-12-04T14:50:29.506Z,88.56
2022-12-04T14:51:29.480Z,88.67
2022-12-04T14:52:29.469Z,88.77
2022-12-04T14:53:29.479Z,88.46
2022-12-04T14:54:29.444Z,88.73
2022-12-04T14:55:29.455Z,88.67
2022-12-04T14:56:29.420Z,88.84
2022-12-04T14:57:29.418Z,88.31
2022-12-04T14:58:29.437Z,88.35
2022-12-04T14:59:29.419Z,88.67
2022-12-04T15:00:29.394Z,88.77
2022-12-04T15:01:30.080Z,88.56
2022-12-04T15:02:29.367Z,88.67
2022-12-04T15:03:29.383Z,88.67
2022-12-04T15:04:29.454Z,89.08
2022-12-04T15:05:29.329Z,88.87
2022-12-04T15:06:35.285Z,89.60
2022-12-04T15:07:30.436Z,89.36
2022-12-04T15:08:29.289Z,89.39
2022-12-04T15:09:29.297Z,89.70
2022-12-04T15:10:29.271Z,89.81
2022-12-04T15:11:29.267Z,89.18
2022-12-04T15:12:29.264Z,89.39
2022-12-04T15:13:29.255Z,89.29
2022-12-04T15:14:29.240Z,89.08
2022-12-04T15:15:29.325Z,89.18
2022-12-04T15:16:29.276Z,89.60
2022-12-04T15:17:29.212Z,88.98
2022-12-04T15:18:29.186Z,89.39
2022-12-04T15:19:29.183Z,89.29
2022-12-04T15:20:30.530Z,89.77
2022-12-04T15:21:29.152Z,89.50
2022-12-04T15:22:29.142Z,89.60
2022-12-04T15:23:29.157Z,89.60
2022-12-04T15:24:29.116Z,89.81
2022-12-04T15:25:29.139Z,89.39
2022-12-04T15:26:29.114Z,90.54
2022-12-04T15:27:32.788Z,90.54
2022-12-04T15:28:29.087Z,90.75
2022-12-04T15:29:29.069Z,89.92
2022-12-04T15:30:29.054Z,90.75
2022-12-04T15:31:29.217Z,90.02
2022-12-04T15:32:29.060Z,89.92
2022-12-04T15:33:29.023Z,90.54
2022-12-04T15:34:29.011Z,90.39
2022-12-04T15:35:29.014Z,90.64
2022-12-04T15:36:29.024Z,89.98
2022-12-04T15:37:29.002Z,89.50
2022-12-04T15:38:29.012Z,89.29
2022-12-04T15:39:28.992Z,89.29
2022-12-04T15:40:28.970Z,89.60
2022-12-04T15:41:28.951Z,89.50
2022-12-04T15:42:28.932Z,89.60
2022-12-04T15:43:28.945Z,90.54
2022-12-04T15:44:28.940Z,90.54
2022-12-04T15:45:28.937Z,90.95
2022-12-04T15:46:28.993Z,90.85
2022-12-04T15:47:28.903Z,90.44
2022-12-04T15:48:28.869Z,90.75
2022-12-04T15:49:28.855Z,90.23
2022-12-04T15:50:28.868Z,90.60
2022-12-04T15:51:28.828Z,90.50
2022-12-04T15:52:28.884Z,90.70
2022-12-04T15:53:28.830Z,90.54
2022-12-04T15:54:28.870Z,90.02
2022-12-04T15:55:28.827Z,90.39
2022-12-04T15:56:28.857Z,90.60
2022-12-04T15:57:28.795Z,90.54
2022-12-04T15:58:28.773Z,90.50
2022-12-04T15:59:28.755Z,90.54
2022-12-04T16:00:28.801Z,90.75
2022-12-04T16:01:28.799Z,90.70
2022-12-04T16:02:28.727Z,90.64
2022-12-04T16:03:28.744Z,90.60
2022-12-04T16:04:28.737Z,90.54
2022-12-04T16:05:28.694Z,90.85
2022-12-04T16:06:28.667Z,90.44
2022-12-04T16:07:28.705Z,90.50
2022-12-04T16:08:28.674Z,90.44
2022-12-04T16:09:28.650Z,89.98
2022-12-04T16:10:28.657Z,90.44
2022-12-04T16:11:28.639Z,90.70
2022-12-04T16:12:28.619Z,90.70
2022-12-04T16:13:28.653Z,90.39
2022-12-04T16:14:28.586Z,90.54
2022-12-04T16:15:28.661Z,89.77
2022-12-04T16:16:28.627Z,90.81
2022-12-04T16:17:28.598Z,90.50
2022-12-04T16:18:28.563Z,90.19
2022-12-04T16:19:28.574Z,90.60
2022-12-04T16:20:28.586Z,90.08
2022-12-04T16:21:28.511Z,90.29
2022-12-04T16:22:28.516Z,90.08
2022-12-04T16:23:28.524Z,90.29
2022-12-04T16:24:28.504Z,90.29
2022-12-04T16:25:28.494Z,90.60
2022-12-04T16:26:28.476Z,90.70
2022-12-04T16:27:28.491Z,89.87
2022-12-04T16:28:28.442Z,89.56
2022-12-04T16:29:28.454Z,90.50
2022-12-04T16:30:28.442Z,89.98
2022-12-04T16:31:28.437Z,90.50
2022-12-04T16:32:28.420Z,90.81
2022-12-04T16:33:28.413Z,90.29
2022-12-04T16:34:28.380Z,90.29
2022-12-04T16:35:28.439Z,90.50
2022-12-04T16:36:28.395Z,90.39
2022-12-04T16:37:28.368Z,90.19
2022-12-04T16:38:28.374Z,90.29
2022-12-04T16:39:28.362Z,90.19
2022-12-04T16:40:28.331Z,90.25
2022-12-04T16:41:28.336Z,90.29
2022-12-04T16:42:28.370Z,90.60
2022-12-04T16:43:28.320Z,90.39
2022-12-04T16:44:28.287Z,90.56
2022-12-04T16:45:28.260Z,90.81
2022-12-04T16:46:28.418Z,90.29
2022-12-04T16:47:28.250Z,90.39
2022-12-04T16:48:28.227Z,90.39
2022-12-04T16:49:28.232Z,90.81
2022-12-04T16:50:28.211Z,90.70
2022-12-04T16:51:28.197Z,90.39
2022-12-04T16:52:28.219Z,90.39
2022-12-04T16:53:28.186Z,90.50
2022-12-04T16:54:28.158Z,90.08
2022-12-04T16:55:28.171Z,90.19
2022-12-04T16:56:28.189Z,90.81
2022-12-04T16:57:28.129Z,90.66
2022-12-04T16:58:28.117Z,90.25
2022-12-04T16:59:28.220Z,90.97
2022-12-04T17:00:28.109Z,90.35
2022-12-04T17:01:28.170Z,90.50
2022-12-04T17:02:28.098Z,90.81
2022-12-04T17:03:28.093Z,90.81
2022-12-04T17:04:28.122Z,90.81
2022-12-04T17:05:28.051Z,90.60
2022-12-04T17:06:28.034Z,91.49
2022-12-04T17:07:28.117Z,91.33
2022-12-04T17:08:28.030Z,91.33
2022-12-04T17:09:28.030Z,91.43
2022-12-04T17:10:27.990Z,91.22
2022-12-04T17:11:27.972Z,91.43
2022-12-04T17:12:27.962Z,91.02
2022-12-04T17:13:27.962Z,91.43
2022-12-04T17:14:27.966Z,91.74
2022-12-04T17:15:27.980Z,91.43
2022-12-04T17:16:27.989Z,91.53
2022-12-04T17:17:27.916Z,91.43
2022-12-04T17:18:27.907Z,91.64
2022-12-04T17:19:27.920Z,91.33
2022-12-04T17:20:28.018Z,91.18
2022-12-04T17:21:27.909Z,91.33
2022-12-04T17:22:27.868Z,91.33
2022-12-04T17:23:27.920Z,91.43
2022-12-04T17:24:27.935Z,91.39
2022-12-04T17:25:27.929Z,91.33
2022-12-04T17:26:28.070Z,91.43
2022-12-04T17:27:27.857Z,91.18
2022-12-04T17:28:27.874Z,91.39
2022-12-04T17:29:28.053Z,91.49
2022-12-04T17:30:31.478Z,91.08
2022-12-04T17:31:28.882Z,91.60
2022-12-04T17:32:27.869Z,91.80
2022-12-04T17:33:27.891Z,92.11
2022-12-04T17:34:27.833Z,92.22
2022-12-04T17:35:27.737Z,91.80
2022-12-04T17:36:27.871Z,91.91
2022-12-04T17:37:27.697Z,91.91
2022-12-04T17:38:27.691Z,92.11
2022-12-04T17:39:27.677Z,91.91
2022-12-04T17:40:27.682Z,92.01
2022-12-04T17:41:27.672Z,91.95
2022-12-04T17:42:27.674Z,91.49
2022-12-04T17:43:27.636Z,92.05
2022-12-04T17:44:27.658Z,92.01
2022-12-04T17:45:27.617Z,92.47
2022-12-04T17:46:27.684Z,92.11
2022-12-04T17:47:27.618Z,92.22
2022-12-04T17:48:27.626Z,92.43
2022-12-04T17:49:27.589Z,92.43
2022-12-04T17:50:27.565Z,92.53
2022-12-04T17:51:27.553Z,92.53
2022-12-04T17:52:27.556Z,92.84
2022-12-04T17:53:27.530Z,93.16
2022-12-04T17:54:27.574Z,93.16
2022-12-04T17:55:27.509Z,92.74
2022-12-04T17:56:27.498Z,92.94
2022-12-04T17:57:27.495Z,92.43
2022-12-04T17:58:27.490Z,92.74
2022-12-04T17:59:27.492Z,92.84
2022-12-04T18:00:27.469Z,92.63
2022-12-04T18:01:27.561Z,92.74
2022-12-04T18:02:27.490Z,92.74
2022-12-04T18:03:27.559Z,92.32
2022-12-04T18:04:27.451Z,92.43
2022-12-04T18:05:27.407Z,92.84
2022-12-04T18:06:27.403Z,92.88
2022-12-04T18:07:27.420Z,93.68
2022-12-04T18:08:27.399Z,93.37
2022-12-04T18:09:27.366Z,93.26
2022-12-04T18:10:27.359Z,93.26
2022-12-04T18:11:27.353Z,93.16
2022-12-04T18:12:27.343Z,92.94
2022-12-04T18:13:27.322Z,92.94
2022-12-04T18:14:27.338Z,93.26
2022-12-04T18:15:27.300Z,93.37
2022-12-04T18:16:27.373Z,93.05
2022-12-04T18:17:27.318Z,93.26
2022-12-04T18:18:27.273Z,93.05
2022-12-04T18:19:27.280Z,93.26
2022-12-04T18:20:27.327Z,93.47
2022-12-04T18:21:27.233Z,93.37
2022-12-04T18:22:27.252Z,92.84
2022-12-04T18:23:27.220Z,92.88